sensor_id;sensor_type;location;lat;lon;timestamp;temperature;humidity
9987;DHT22;5033;46.310;11.214;2023-03-03T00:00:07;5.40;99.90
9987;DHT22;5033;46.310;11.214;2023-03-03T00:02:35;5.40;99.90
9987;DHT22;5033;46.310;11.214;2023-03-03T00:05:03;5.40;99.90
9987;DHT22;5033;46.310;11.214;2023-03-03T00:07:31;5.40;99.90
9987;DHT22;5033;46.310;11.214;2023-03-03T00:09:58;5.40;99.90
9987;DHT22;5033;46.310;11.214;2023-03-03T00:12:26;5.40;99.90
9987;DHT22;5033;46.310;11.214;2023-03-03T00:14:53;5.40;99.90
9987;DHT22;5033;46.310;11.214;2023-03-03T00:17:23;5.40;99.90
9987;DHT22;5033;46.310;11.214;2023-03-03T00:19:53;5.40;99.90
9987;DHT22;5033;46.310;11.214;2023-03-03T00:22:27;5.40;99.90
9987;DHT22;5033;46.310;11.214;2023-03-03T00:24:57;5.30;99.90
9987;DHT22;5033;46.310;11.214;2023-03-03T00:27:29;5.40;99.90
9987;DHT22;5033;46.310;11.214;2023-03-03T00:29:58;5.30;99.90
9987;DHT22;5033;46.310;11.214;2023-03-03T00:32:26;5.30;99.90
9987;DHT22;5033;46.310;11.214;2023-03-03T00:35:15;5.20;99.90
9987;DHT22;5033;46.310;11.214;2023-03-03T00:37:45;5.20;99.90
9987;DHT22;5033;46.310;11.214;2023-03-03T00:40:20;5.20;99.90
9987;DHT22;5033;46.310;11.214;2023-03-03T00:42:50;5.20;99.90
9987;DHT22;5033;46.310;11.214;2023-03-03T00:45:25;5.20;99.90
9987;DHT22;5033;46.310;11.214;2023-03-03T00:47:53;5.20;99.90
9987;DHT22;5033;46.310;11.214;2023-03-03T00:50:42;5.10;99.90
9987;DHT22;5033;46.310;11.214;2023-03-03T00:53:11;5.10;99.90
9987;DHT22;5033;46.310;11.214;2023-03-03T00:55:42;5.10;99.90
9987;DHT22;5033;46.310;11.214;2023-03-03T00:58:09;5.10;99.90
9987;DHT22;5033;46.310;11.214;2023-03-03T01:00:36;5.10;99.90
9987;DHT22;5033;46.310;11.214;2023-03-03T01:03:05;5.10;99.90
9987;DHT22;5033;46.310;11.214;2023-03-03T01:05:33;5.10;99.90
9987;DHT22;5033;46.310;11.214;2023-03-03T01:08:02;5.10;99.90
9987;DHT22;5033;46.310;11.214;2023-03-03T01:10:31;5.10;99.90
9987;DHT22;5033;46.310;11.214;2023-03-03T01:12:59;5.10;99.90
9987;DHT22;5033;46.310;11.214;2023-03-03T01:15:26;5.10;99.90
9987;DHT22;5033;46.310;11.214;2023-03-03T01:17:54;5.00;99.90
9987;DHT22;5033;46.310;11.214;2023-03-03T01:20:21;5.10;99.90
9987;DHT22;5033;46.310;11.214;2023-03-03T01:22:48;5.10;99.90
9987;DHT22;5033;46.310;11.214;2023-03-03T01:25:17;5.00;99.90
9987;DHT22;5033;46.310;11.214;2023-03-03T01:27:44;5.00;99.90
9987;DHT22;5033;46.310;11.214;2023-03-03T01:30:12;5.00;99.90
9987;DHT22;5033;46.310;11.214;2023-03-03T01:32:39;5.00;99.90
9987;DHT22;5033;46.310;11.214;2023-03-03T01:35:07;5.00;99.90
9987;DHT22;5033;46.310;11.214;2023-03-03T01:37:35;4.90;99.90
9987;DHT22;5033;46.310;11.214;2023-03-03T01:40:03;4.90;99.90
9987;DHT22;5033;46.310;11.214;2023-03-03T01:42:33;4.90;99.90
9987;DHT22;5033;46.310;11.214;2023-03-03T01:45:16;4.90;99.90
9987;DHT22;5033;46.310;11.214;2023-03-03T01:47:50;4.90;99.90
9987;DHT22;5033;46.310;11.214;2023-03-03T01:50:27;4.90;99.90
9987;DHT22;5033;46.310;11.214;2023-03-03T01:52:57;4.80;99.90
9987;DHT22;5033;46.310;11.214;2023-03-03T01:55:33;4.90;99.90
9987;DHT22;5033;46.310;11.214;2023-03-03T01:58:04;4.90;99.90
9987;DHT22;5033;46.310;11.214;2023-03-03T02:00:35;4.90;99.90
9987;DHT22;5033;46.310;11.214;2023-03-03T02:03:03;4.90;99.90
9987;DHT22;5033;46.310;11.214;2023-03-03T02:05:31;4.90;99.90
9987;DHT22;5033;46.310;11.214;2023-03-03T02:07:58;4.90;99.90
9987;DHT22;5033;46.310;11.214;2023-03-03T02:10:26;4.90;99.90
9987;DHT22;5033;46.310;11.214;2023-03-03T02:12:55;4.90;99.90
9987;DHT22;5033;46.310;11.214;2023-03-03T02:15:26;4.90;99.90
9987;DHT22;5033;46.310;11.214;2023-03-03T02:17:55;4.90;99.90
9987;DHT22;5033;46.310;11.214;2023-03-03T02:20:45;4.90;99.90
9987;DHT22;5033;46.310;11.214;2023-03-03T02:23:19;4.90;99.90
9987;DHT22;5033;46.310;11.214;2023-03-03T02:25:59;4.90;99.90
9987;DHT22;5033;46.310;11.214;2023-03-03T02:28:30;4.90;99.90
9987;DHT22;5033;46.310;11.214;2023-03-03T02:30:59;4.90;99.90
9987;DHT22;5033;46.310;11.214;2023-03-03T02:33:26;4.90;99.90
9987;DHT22;5033;46.310;11.214;2023-03-03T02:35:54;4.90;99.90
9987;DHT22;5033;46.310;11.214;2023-03-03T02:38:26;4.90;99.90
9987;DHT22;5033;46.310;11.214;2023-03-03T02:41:02;4.90;99.90
9987;DHT22;5033;46.310;11.214;2023-03-03T02:43:35;4.80;99.90
9987;DHT22;5033;46.310;11.214;2023-03-03T02:46:03;4.80;99.90
9987;DHT22;5033;46.310;11.214;2023-03-03T02:48:30;4.80;99.90
9987;DHT22;5033;46.310;11.214;2023-03-03T02:50:57;4.80;99.90
9987;DHT22;5033;46.310;11.214;2023-03-03T02:53:24;4.80;99.90
9987;DHT22;5033;46.310;11.214;2023-03-03T02:55:51;4.70;99.90
9987;DHT22;5033;46.310;11.214;2023-03-03T02:58:20;4.70;99.90
9987;DHT22;5033;46.310;11.214;2023-03-03T03:00:47;4.60;99.90
9987;DHT22;5033;46.310;11.214;2023-03-03T03:03:14;4.60;99.90
9987;DHT22;5033;46.310;11.214;2023-03-03T03:05:41;4.60;99.90
9987;DHT22;5033;46.310;11.214;2023-03-03T03:08:08;4.60;99.90
9987;DHT22;5033;46.310;11.214;2023-03-03T03:10:35;4.60;99.90
9987;DHT22;5033;46.310;11.214;2023-03-03T03:13:02;4.50;99.90
9987;DHT22;5033;46.310;11.214;2023-03-03T03:15:31;4.50;99.90
9987;DHT22;5033;46.310;11.214;2023-03-03T03:17:58;4.50;99.90
9987;DHT22;5033;46.310;11.214;2023-03-03T03:20:25;4.50;99.90
9987;DHT22;5033;46.310;11.214;2023-03-03T03:22:52;4.50;99.90
9987;DHT22;5033;46.310;11.214;2023-03-03T03:25:19;4.50;99.90
9987;DHT22;5033;46.310;11.214;2023-03-03T03:27:46;4.40;99.90
9987;DHT22;5033;46.310;11.214;2023-03-03T03:30:13;4.40;99.90
9987;DHT22;5033;46.310;11.214;2023-03-03T03:32:42;4.40;99.90
9987;DHT22;5033;46.310;11.214;2023-03-03T03:35:09;4.40;99.90
9987;DHT22;5033;46.310;11.214;2023-03-03T03:37:38;4.40;99.90
9987;DHT22;5033;46.310;11.214;2023-03-03T03:40:05;4.30;99.90
9987;DHT22;5033;46.310;11.214;2023-03-03T03:42:32;4.30;99.90
9987;DHT22;5033;46.310;11.214;2023-03-03T03:45:00;4.30;99.90
9987;DHT22;5033;46.310;11.214;2023-03-03T03:47:27;4.30;99.90
9987;DHT22;5033;46.310;11.214;2023-03-03T03:49:55;4.30;99.90
9987;DHT22;5033;46.310;11.214;2023-03-03T03:52:22;4.30;99.90
9987;DHT22;5033;46.310;11.214;2023-03-03T03:54:49;4.20;99.90
9987;DHT22;5033;46.310;11.214;2023-03-03T03:57:16;4.20;99.90
9987;DHT22;5033;46.310;11.214;2023-03-03T03:59:43;4.20;99.90
9987;DHT22;5033;46.310;11.214;2023-03-03T04:02:10;4.30;99.90
9987;DHT22;5033;46.310;11.214;2023-03-03T04:04:37;4.30;99.90
9987;DHT22;5033;46.310;11.214;2023-03-03T04:07:06;4.30;99.90
9987;DHT22;5033;46.310;11.214;2023-03-03T04:09:33;4.30;99.90
9987;DHT22;5033;46.310;11.214;2023-03-03T04:12:00;4.30;99.90
9987;DHT22;5033;46.310;11.214;2023-03-03T04:14:27;4.30;99.90
9987;DHT22;5033;46.310;11.214;2023-03-03T04:16:54;4.30;99.90
9987;DHT22;5033;46.310;11.214;2023-03-03T04:19:22;4.30;99.90
9987;DHT22;5033;46.310;11.214;2023-03-03T04:21:50;4.30;99.90
9987;DHT22;5033;46.310;11.214;2023-03-03T04:24:18;4.30;99.90
9987;DHT22;5033;46.310;11.214;2023-03-03T04:26:46;4.30;99.90
9987;DHT22;5033;46.310;11.214;2023-03-03T04:29:12;4.20;99.90
9987;DHT22;5033;46.310;11.214;2023-03-03T04:31:40;4.20;99.90
9987;DHT22;5033;46.310;11.214;2023-03-03T04:34:07;4.20;99.90
9987;DHT22;5033;46.310;11.214;2023-03-03T04:36:34;4.20;99.90
9987;DHT22;5033;46.310;11.214;2023-03-03T04:39:01;4.20;99.90
9987;DHT22;5033;46.310;11.214;2023-03-03T04:41:30;4.20;99.90
9987;DHT22;5033;46.310;11.214;2023-03-03T04:43:57;4.20;99.90
9987;DHT22;5033;46.310;11.214;2023-03-03T04:46:24;4.20;99.90
9987;DHT22;5033;46.310;11.214;2023-03-03T04:48:51;4.10;99.90
9987;DHT22;5033;46.310;11.214;2023-03-03T04:51:18;4.10;99.90
9987;DHT22;5033;46.310;11.214;2023-03-03T04:53:45;4.10;99.90
9987;DHT22;5033;46.310;11.214;2023-03-03T04:56:12;4.20;99.90
9987;DHT22;5033;46.310;11.214;2023-03-03T04:58:41;4.20;99.90
9987;DHT22;5033;46.310;11.214;2023-03-03T05:01:11;4.20;99.90
9987;DHT22;5033;46.310;11.214;2023-03-03T05:03:38;4.20;99.90
9987;DHT22;5033;46.310;11.214;2023-03-03T05:06:06;4.20;99.90
9987;DHT22;5033;46.310;11.214;2023-03-03T05:08:33;4.20;99.90
9987;DHT22;5033;46.310;11.214;2023-03-03T05:11:00;4.10;99.90
9987;DHT22;5033;46.310;11.214;2023-03-03T05:13:27;4.10;99.90
9987;DHT22;5033;46.310;11.214;2023-03-03T05:15:57;4.10;99.90
9987;DHT22;5033;46.310;11.214;2023-03-03T05:18:24;4.10;99.90
9987;DHT22;5033;46.310;11.214;2023-03-03T05:20:52;4.00;99.90
9987;DHT22;5033;46.310;11.214;2023-03-03T05:23:19;4.00;99.90
9987;DHT22;5033;46.310;11.214;2023-03-03T05:25:47;4.00;99.90
9987;DHT22;5033;46.310;11.214;2023-03-03T05:28:15;4.00;99.90
9987;DHT22;5033;46.310;11.214;2023-03-03T05:30:43;4.00;99.90
9987;DHT22;5033;46.310;11.214;2023-03-03T05:33:13;4.00;99.90
9987;DHT22;5033;46.310;11.214;2023-03-03T05:35:40;3.90;99.90
9987;DHT22;5033;46.310;11.214;2023-03-03T05:38:07;3.80;99.90
9987;DHT22;5033;46.310;11.214;2023-03-03T05:40:34;3.80;99.90
9987;DHT22;5033;46.310;11.214;2023-03-03T05:43:02;3.80;99.90
9987;DHT22;5033;46.310;11.214;2023-03-03T05:45:29;3.80;99.90
9987;DHT22;5033;46.310;11.214;2023-03-03T05:47:56;3.80;99.90
9987;DHT22;5033;46.310;11.214;2023-03-03T05:50:24;3.80;99.90
9987;DHT22;5033;46.310;11.214;2023-03-03T05:52:51;3.80;99.90
9987;DHT22;5033;46.310;11.214;2023-03-03T05:55:19;3.80;99.90
9987;DHT22;5033;46.310;11.214;2023-03-03T05:57:46;3.80;99.90
9987;DHT22;5033;46.310;11.214;2023-03-03T06:00:14;3.80;99.90
9987;DHT22;5033;46.310;11.214;2023-03-03T06:02:42;3.90;99.90
9987;DHT22;5033;46.310;11.214;2023-03-03T06:05:09;3.90;99.90
9987;DHT22;5033;46.310;11.214;2023-03-03T06:07:38;3.90;99.90
9987;DHT22;5033;46.310;11.214;2023-03-03T06:10:06;3.90;99.90
9987;DHT22;5033;46.310;11.214;2023-03-03T06:12:34;4.00;99.90
9987;DHT22;5033;46.310;11.214;2023-03-03T06:15:01;4.00;99.90
9987;DHT22;5033;46.310;11.214;2023-03-03T06:17:29;4.10;99.90
9987;DHT22;5033;46.310;11.214;2023-03-03T06:19:56;4.10;99.90
9987;DHT22;5033;46.310;11.214;2023-03-03T06:22:23;4.10;99.90
9987;DHT22;5033;46.310;11.214;2023-03-03T06:24:51;4.10;99.90
9987;DHT22;5033;46.310;11.214;2023-03-03T06:27:18;4.10;99.90
9987;DHT22;5033;46.310;11.214;2023-03-03T06:29:45;4.10;99.90
9987;DHT22;5033;46.310;11.214;2023-03-03T06:32:12;4.10;99.90
9987;DHT22;5033;46.310;11.214;2023-03-03T06:34:39;4.10;99.90
9987;DHT22;5033;46.310;11.214;2023-03-03T06:37:07;4.10;99.90
9987;DHT22;5033;46.310;11.214;2023-03-03T06:39:34;4.10;99.90
9987;DHT22;5033;46.310;11.214;2023-03-03T06:42:02;4.10;99.90
9987;DHT22;5033;46.310;11.214;2023-03-03T06:44:29;4.20;99.90
9987;DHT22;5033;46.310;11.214;2023-03-03T06:46:57;4.20;99.90
9987;DHT22;5033;46.310;11.214;2023-03-03T06:49:24;4.30;99.90
9987;DHT22;5033;46.310;11.214;2023-03-03T06:51:51;4.40;99.90
9987;DHT22;5033;46.310;11.214;2023-03-03T06:54:19;4.40;99.90
9987;DHT22;5033;46.310;11.214;2023-03-03T06:56:47;4.50;99.90
9987;DHT22;5033;46.310;11.214;2023-03-03T06:59:18;4.60;99.90
9987;DHT22;5033;46.310;11.214;2023-03-03T07:01:47;4.70;99.90
9987;DHT22;5033;46.310;11.214;2023-03-03T07:04:28;4.80;99.90
9987;DHT22;5033;46.310;11.214;2023-03-03T07:06:56;4.90;99.90
9987;DHT22;5033;46.310;11.214;2023-03-03T07:09:26;5.00;99.90
9987;DHT22;5033;46.310;11.214;2023-03-03T07:11:56;5.40;99.90
9987;DHT22;5033;46.310;11.214;2023-03-03T07:14:28;6.10;99.90
9987;DHT22;5033;46.310;11.214;2023-03-03T07:16:59;6.80;99.90
9987;DHT22;5033;46.310;11.214;2023-03-03T07:19:30;7.50;99.90
9987;DHT22;5033;46.310;11.214;2023-03-03T07:22:00;8.00;99.90
9987;DHT22;5033;46.310;11.214;2023-03-03T07:24:32;8.30;99.90
9987;DHT22;5033;46.310;11.214;2023-03-03T07:27:08;8.40;99.90
9987;DHT22;5033;46.310;11.214;2023-03-03T07:29:38;8.70;99.90
9987;DHT22;5033;46.310;11.214;2023-03-03T07:32:23;9.00;99.90
9987;DHT22;5033;46.310;11.214;2023-03-03T07:34:51;9.30;99.90
9987;DHT22;5033;46.310;11.214;2023-03-03T07:37:28;9.30;99.90
9987;DHT22;5033;46.310;11.214;2023-03-03T07:39:57;9.40;99.90
9987;DHT22;5033;46.310;11.214;2023-03-03T07:42:26;9.90;99.90
9987;DHT22;5033;46.310;11.214;2023-03-03T07:44:57;10.30;99.90
9987;DHT22;5033;46.310;11.214;2023-03-03T07:47:26;10.70;99.90
9987;DHT22;5033;46.310;11.214;2023-03-03T07:49:55;11.10;99.90
9987;DHT22;5033;46.310;11.214;2023-03-03T07:52:26;11.20;99.90
9987;DHT22;5033;46.310;11.214;2023-03-03T07:54:55;10.80;99.90
9987;DHT22;5033;46.310;11.214;2023-03-03T07:57:25;10.40;99.90
9987;DHT22;5033;46.310;11.214;2023-03-03T08:00:00;9.70;99.90
9987;DHT22;5033;46.310;11.214;2023-03-03T08:02:42;8.80;99.90
9987;DHT22;5033;46.310;11.214;2023-03-03T08:05:37;8.40;99.90
9987;DHT22;5033;46.310;11.214;2023-03-03T08:08:14;8.10;99.90
9987;DHT22;5033;46.310;11.214;2023-03-03T08:10:47;7.90;99.90
9987;DHT22;5033;46.310;11.214;2023-03-03T08:13:17;7.80;99.90
9987;DHT22;5033;46.310;11.214;2023-03-03T08:15:49;7.70;99.90
9987;DHT22;5033;46.310;11.214;2023-03-03T08:18:22;7.70;99.90
9987;DHT22;5033;46.310;11.214;2023-03-03T08:20:51;7.70;99.90
9987;DHT22;5033;46.310;11.214;2023-03-03T08:23:20;7.70;99.90
9987;DHT22;5033;46.310;11.214;2023-03-03T08:25:49;7.70;99.90
9987;DHT22;5033;46.310;11.214;2023-03-03T08:28:17;7.60;99.90
9987;DHT22;5033;46.310;11.214;2023-03-03T08:30:46;7.60;99.90
9987;DHT22;5033;46.310;11.214;2023-03-03T08:33:14;7.60;99.90
9987;DHT22;5033;46.310;11.214;2023-03-03T08:35:41;7.60;99.90
9987;DHT22;5033;46.310;11.214;2023-03-03T08:38:09;7.60;99.90
9987;DHT22;5033;46.310;11.214;2023-03-03T08:40:37;7.60;99.90
9987;DHT22;5033;46.310;11.214;2023-03-03T08:43:04;7.60;99.90
9987;DHT22;5033;46.310;11.214;2023-03-03T08:45:32;7.50;99.90
9987;DHT22;5033;46.310;11.214;2023-03-03T08:48:06;7.50;99.90
9987;DHT22;5033;46.310;11.214;2023-03-03T08:50:35;7.50;99.90
9987;DHT22;5033;46.310;11.214;2023-03-03T08:53:03;7.60;99.90
9987;DHT22;5033;46.310;11.214;2023-03-03T08:55:30;7.70;99.90
9987;DHT22;5033;46.310;11.214;2023-03-03T08:57:57;7.80;99.90
9987;DHT22;5033;46.310;11.214;2023-03-03T09:00:25;7.90;99.90
9987;DHT22;5033;46.310;11.214;2023-03-03T09:02:52;8.00;99.90
9987;DHT22;5033;46.310;11.214;2023-03-03T09:05:21;8.20;99.90
9987;DHT22;5033;46.310;11.214;2023-03-03T09:07:49;8.30;99.90
9987;DHT22;5033;46.310;11.214;2023-03-03T09:10:20;8.40;99.90
9987;DHT22;5033;46.310;11.214;2023-03-03T09:12:54;8.60;99.90
9987;DHT22;5033;46.310;11.214;2023-03-03T09:15:25;8.90;99.90
9987;DHT22;5033;46.310;11.214;2023-03-03T09:17:54;9.30;99.90
9987;DHT22;5033;46.310;11.214;2023-03-03T09:20:31;9.40;99.90
9987;DHT22;5033;46.310;11.214;2023-03-03T09:22:59;9.70;99.90
9987;DHT22;5033;46.310;11.214;2023-03-03T09:25:42;10.10;99.90
9987;DHT22;5033;46.310;11.214;2023-03-03T09:28:21;10.50;99.90
9987;DHT22;5033;46.310;11.214;2023-03-03T09:30:51;10.60;99.90
9987;DHT22;5033;46.310;11.214;2023-03-03T09:33:22;10.60;99.90
9987;DHT22;5033;46.310;11.214;2023-03-03T09:35:53;10.50;99.90
9987;DHT22;5033;46.310;11.214;2023-03-03T09:38:28;10.50;99.90
9987;DHT22;5033;46.310;11.214;2023-03-03T09:41:36;10.80;99.90
9987;DHT22;5033;46.310;11.214;2023-03-03T09:44:21;11.30;99.90
9987;DHT22;5033;46.310;11.214;2023-03-03T09:47:06;11.70;99.90
9987;DHT22;5033;46.310;11.214;2023-03-03T09:49:41;11.70;99.90
9987;DHT22;5033;46.310;11.214;2023-03-03T09:52:23;12.00;99.90
9987;DHT22;5033;46.310;11.214;2023-03-03T09:55:06;11.90;99.90
9987;DHT22;5033;46.310;11.214;2023-03-03T09:57:50;11.80;99.90
9987;DHT22;5033;46.310;11.214;2023-03-03T10:00:37;11.80;99.90
9987;DHT22;5033;46.310;11.214;2023-03-03T10:03:46;11.80;99.90
9987;DHT22;5033;46.310;11.214;2023-03-03T10:06:22;11.80;99.90
9987;DHT22;5033;46.310;11.214;2023-03-03T10:09:09;12.00;99.90
9987;DHT22;5033;46.310;11.214;2023-03-03T10:11:45;12.20;99.90
9987;DHT22;5033;46.310;11.214;2023-03-03T10:14:36;12.30;99.90
9987;DHT22;5033;46.310;11.214;2023-03-03T10:17:20;12.40;99.90
9987;DHT22;5033;46.310;11.214;2023-03-03T10:19:54;12.50;99.90
9987;DHT22;5033;46.310;11.214;2023-03-03T10:22:29;12.80;99.90
9987;DHT22;5033;46.310;11.214;2023-03-03T10:25:13;13.00;99.90
9987;DHT22;5033;46.310;11.214;2023-03-03T10:27:54;13.20;99.90
9987;DHT22;5033;46.310;11.214;2023-03-03T10:30:30;13.20;99.90
9987;DHT22;5033;46.310;11.214;2023-03-03T10:33:01;13.20;99.90
9987;DHT22;5033;46.310;11.214;2023-03-03T10:35:38;13.30;99.90
9987;DHT22;5033;46.310;11.214;2023-03-03T10:38:26;13.50;99.90
9987;DHT22;5033;46.310;11.214;2023-03-03T10:41:11;13.80;99.90
9987;DHT22;5033;46.310;11.214;2023-03-03T10:43:51;13.40;99.90
9987;DHT22;5033;46.310;11.214;2023-03-03T10:46:38;13.20;99.90
9987;DHT22;5033;46.310;11.214;2023-03-03T10:49:29;12.90;99.90
9987;DHT22;5033;46.310;11.214;2023-03-03T10:52:21;12.80;99.90
9987;DHT22;5033;46.310;11.214;2023-03-03T10:55:07;13.50;99.90
9987;DHT22;5033;46.310;11.214;2023-03-03T10:57:44;14.00;99.90
9987;DHT22;5033;46.310;11.214;2023-03-03T11:00:21;14.10;99.90
9987;DHT22;5033;46.310;11.214;2023-03-03T11:03:09;14.10;99.90
9987;DHT22;5033;46.310;11.214;2023-03-03T11:05:49;14.10;99.90
9987;DHT22;5033;46.310;11.214;2023-03-03T11:08:21;14.10;99.90
9987;DHT22;5033;46.310;11.214;2023-03-03T11:10:59;14.20;99.90
9987;DHT22;5033;46.310;11.214;2023-03-03T11:13:39;14.10;99.90
9987;DHT22;5033;46.310;11.214;2023-03-03T11:16:18;13.80;99.90
9987;DHT22;5033;46.310;11.214;2023-03-03T11:18:55;13.50;99.90
9987;DHT22;5033;46.310;11.214;2023-03-03T11:21:31;13.30;99.90
9987;DHT22;5033;46.310;11.214;2023-03-03T11:24:10;13.20;99.90
9987;DHT22;5033;46.310;11.214;2023-03-03T11:26:58;13.10;99.90
9987;DHT22;5033;46.310;11.214;2023-03-03T11:29:42;13.00;99.90
9987;DHT22;5033;46.310;11.214;2023-03-03T11:32:20;12.90;99.90
9987;DHT22;5033;46.310;11.214;2023-03-03T11:34:57;13.10;99.90
9987;DHT22;5033;46.310;11.214;2023-03-03T11:37:33;13.10;99.90
9987;DHT22;5033;46.310;11.214;2023-03-03T11:40:11;13.00;99.90
9987;DHT22;5033;46.310;11.214;2023-03-03T11:42:47;13.10;99.90
9987;DHT22;5033;46.310;11.214;2023-03-03T11:45:20;13.20;99.90
9987;DHT22;5033;46.310;11.214;2023-03-03T11:47:53;13.20;99.90
9987;DHT22;5033;46.310;11.214;2023-03-03T11:50:26;13.20;99.90
9987;DHT22;5033;46.310;11.214;2023-03-03T11:53:04;13.00;99.90
9987;DHT22;5033;46.310;11.214;2023-03-03T11:55:35;13.00;99.90
9987;DHT22;5033;46.310;11.214;2023-03-03T11:58:11;13.50;99.90
9987;DHT22;5033;46.310;11.214;2023-03-03T12:00:44;13.80;99.90
9987;DHT22;5033;46.310;11.214;2023-03-03T12:03:20;14.30;99.90
9987;DHT22;5033;46.310;11.214;2023-03-03T12:05:56;14.80;99.90
9987;DHT22;5033;46.310;11.214;2023-03-03T12:08:37;15.20;99.90
9987;DHT22;5033;46.310;11.214;2023-03-03T12:11:14;15.40;99.90
9987;DHT22;5033;46.310;11.214;2023-03-03T12:13:53;15.60;99.90
9987;DHT22;5033;46.310;11.214;2023-03-03T12:16:34;15.70;99.90
9987;DHT22;5033;46.310;11.214;2023-03-03T12:19:15;15.80;99.90
9987;DHT22;5033;46.310;11.214;2023-03-03T12:21:56;16.00;99.90
9987;DHT22;5033;46.310;11.214;2023-03-03T12:24:37;16.00;99.90
9987;DHT22;5033;46.310;11.214;2023-03-03T12:27:17;16.20;99.90
9987;DHT22;5033;46.310;11.214;2023-03-03T12:29:56;16.00;99.90
9987;DHT22;5033;46.310;11.214;2023-03-03T12:32:38;15.80;99.90
9987;DHT22;5033;46.310;11.214;2023-03-03T12:35:14;16.10;99.90
9987;DHT22;5033;46.310;11.214;2023-03-03T12:37:53;15.80;99.90
9987;DHT22;5033;46.310;11.214;2023-03-03T12:40:24;15.40;99.90
9987;DHT22;5033;46.310;11.214;2023-03-03T12:43:09;14.80;99.90
9987;DHT22;5033;46.310;11.214;2023-03-03T12:45:48;14.20;99.90
9987;DHT22;5033;46.310;11.214;2023-03-03T12:48:24;14.00;99.90
9987;DHT22;5033;46.310;11.214;2023-03-03T12:51:00;13.90;99.90
9987;DHT22;5033;46.310;11.214;2023-03-03T12:53:45;13.80;99.90
9987;DHT22;5033;46.310;11.214;2023-03-03T12:56:19;13.80;99.90
9987;DHT22;5033;46.310;11.214;2023-03-03T12:58:53;13.70;99.90
9987;DHT22;5033;46.310;11.214;2023-03-03T13:01:37;14.10;99.90
9987;DHT22;5033;46.310;11.214;2023-03-03T13:04:12;14.80;99.90
9987;DHT22;5033;46.310;11.214;2023-03-03T13:06:47;15.00;99.90
9987;DHT22;5033;46.310;11.214;2023-03-03T13:09:26;15.00;99.90
9987;DHT22;5033;46.310;11.214;2023-03-03T13:12:19;14.70;99.90
9987;DHT22;5033;46.310;11.214;2023-03-03T13:14:52;14.50;99.90
9987;DHT22;5033;46.310;11.214;2023-03-03T13:17:27;14.60;99.90
9987;DHT22;5033;46.310;11.214;2023-03-03T13:19:59;14.80;99.90
9987;DHT22;5033;46.310;11.214;2023-03-03T13:22:38;14.90;99.90
9987;DHT22;5033;46.310;11.214;2023-03-03T13:25:23;14.90;99.90
9987;DHT22;5033;46.310;11.214;2023-03-03T13:27:56;14.80;99.90
9987;DHT22;5033;46.310;11.214;2023-03-03T13:30:29;14.80;99.90
9987;DHT22;5033;46.310;11.214;2023-03-03T13:33:01;14.60;99.90
9987;DHT22;5033;46.310;11.214;2023-03-03T13:35:41;14.60;99.90
9987;DHT22;5033;46.310;11.214;2023-03-03T13:38:12;14.70;99.90
9987;DHT22;5033;46.310;11.214;2023-03-03T13:40:44;14.60;99.90
9987;DHT22;5033;46.310;11.214;2023-03-03T13:43:16;14.40;99.90
9987;DHT22;5033;46.310;11.214;2023-03-03T13:45:53;14.30;99.90
9987;DHT22;5033;46.310;11.214;2023-03-03T13:48:36;13.90;99.90
9987;DHT22;5033;46.310;11.214;2023-03-03T13:51:18;13.60;99.90
9987;DHT22;5033;46.310;11.214;2023-03-03T13:53:52;13.50;99.90
9987;DHT22;5033;46.310;11.214;2023-03-03T13:56:36;13.70;99.90
9987;DHT22;5033;46.310;11.214;2023-03-03T13:59:14;13.90;99.90
9987;DHT22;5033;46.310;11.214;2023-03-03T14:01:54;14.00;99.90
9987;DHT22;5033;46.310;11.214;2023-03-03T14:04:31;14.00;99.90
9987;DHT22;5033;46.310;11.214;2023-03-03T14:07:10;13.90;99.90
9987;DHT22;5033;46.310;11.214;2023-03-03T14:09:55;13.80;99.90
9987;DHT22;5033;46.310;11.214;2023-03-03T14:12:32;13.60;99.90
9987;DHT22;5033;46.310;11.214;2023-03-03T14:15:10;13.50;99.90
9987;DHT22;5033;46.310;11.214;2023-03-03T14:17:53;13.50;99.90
9987;DHT22;5033;46.310;11.214;2023-03-03T14:20:26;13.50;99.90
9987;DHT22;5033;46.310;11.214;2023-03-03T14:22:57;13.60;99.90
9987;DHT22;5033;46.310;11.214;2023-03-03T14:25:25;13.90;99.90
9987;DHT22;5033;46.310;11.214;2023-03-03T14:28:08;14.20;99.90
9987;DHT22;5033;46.310;11.214;2023-03-03T14:30:39;14.20;99.90
9987;DHT22;5033;46.310;11.214;2023-03-03T14:33:21;14.20;99.90
9987;DHT22;5033;46.310;11.214;2023-03-03T14:36:01;14.20;99.90
9987;DHT22;5033;46.310;11.214;2023-03-03T14:38:47;14.20;99.90
9987;DHT22;5033;46.310;11.214;2023-03-03T14:41:21;14.20;99.90
9987;DHT22;5033;46.310;11.214;2023-03-03T14:44:00;14.30;99.90
9987;DHT22;5033;46.310;11.214;2023-03-03T14:46:36;14.50;99.90
9987;DHT22;5033;46.310;11.214;2023-03-03T14:49:11;14.50;99.90
9987;DHT22;5033;46.310;11.214;2023-03-03T14:51:41;14.70;99.90
9987;DHT22;5033;46.310;11.214;2023-03-03T14:54:15;14.90;99.90
9987;DHT22;5033;46.310;11.214;2023-03-03T14:56:57;15.00;99.90
9987;DHT22;5033;46.310;11.214;2023-03-03T14:59:26;14.90;99.90
9987;DHT22;5033;46.310;11.214;2023-03-03T15:01:59;14.60;99.90
9987;DHT22;5033;46.310;11.214;2023-03-03T15:04:29;14.30;99.90
9987;DHT22;5033;46.310;11.214;2023-03-03T15:06:56;14.10;99.90
9987;DHT22;5033;46.310;11.214;2023-03-03T15:09:31;14.00;99.90
9987;DHT22;5033;46.310;11.214;2023-03-03T15:12:02;14.00;99.90
9987;DHT22;5033;46.310;11.214;2023-03-03T15:14:44;14.00;99.90
9987;DHT22;5033;46.310;11.214;2023-03-03T15:17:27;13.80;99.90
9987;DHT22;5033;46.310;11.214;2023-03-03T15:20:18;13.70;99.90
9987;DHT22;5033;46.310;11.214;2023-03-03T15:22:49;13.60;99.90
9987;DHT22;5033;46.310;11.214;2023-03-03T15:25:25;13.50;99.90
9987;DHT22;5033;46.310;11.214;2023-03-03T15:28:05;13.40;99.90
9987;DHT22;5033;46.310;11.214;2023-03-03T15:30:39;13.40;99.90
9987;DHT22;5033;46.310;11.214;2023-03-03T15:33:14;13.30;99.90
9987;DHT22;5033;46.310;11.214;2023-03-03T15:35:49;13.30;99.90
9987;DHT22;5033;46.310;11.214;2023-03-03T15:38:33;13.30;99.90
9987;DHT22;5033;46.310;11.214;2023-03-03T15:41:17;13.20;99.90
9987;DHT22;5033;46.310;11.214;2023-03-03T15:43:55;13.20;99.90
9987;DHT22;5033;46.310;11.214;2023-03-03T15:46:32;13.20;99.90
9987;DHT22;5033;46.310;11.214;2023-03-03T15:49:10;13.10;99.90
9987;DHT22;5033;46.310;11.214;2023-03-03T15:51:55;13.10;99.90
9987;DHT22;5033;46.310;11.214;2023-03-03T15:54:33;13.10;99.90
9987;DHT22;5033;46.310;11.214;2023-03-03T15:57:07;13.00;99.90
9987;DHT22;5033;46.310;11.214;2023-03-03T15:59:58;13.00;99.90
9987;DHT22;5033;46.310;11.214;2023-03-03T16:02:38;13.00;99.90
9987;DHT22;5033;46.310;11.214;2023-03-03T16:05:14;12.90;99.90
9987;DHT22;5033;46.310;11.214;2023-03-03T16:07:49;12.90;99.90
9987;DHT22;5033;46.310;11.214;2023-03-03T16:10:25;12.80;99.90
9987;DHT22;5033;46.310;11.214;2023-03-03T16:13:10;12.80;99.90
9987;DHT22;5033;46.310;11.214;2023-03-03T16:15:45;12.80;99.90
9987;DHT22;5033;46.310;11.214;2023-03-03T16:18:22;12.80;99.90
9987;DHT22;5033;46.310;11.214;2023-03-03T16:21:02;12.80;99.90
9987;DHT22;5033;46.310;11.214;2023-03-03T16:23:38;12.70;99.90
9987;DHT22;5033;46.310;11.214;2023-03-03T16:26:22;12.60;99.90
9987;DHT22;5033;46.310;11.214;2023-03-03T16:29:18;12.50;99.90
9987;DHT22;5033;46.310;11.214;2023-03-03T16:31:52;12.50;99.90